Tropic Express — J8QB8 — position and weather

sailwx.info

Track history (hours):
 
Tides and Currents Weather Stations Pressure Air Temp Water Temp Dewpoint Dewpoint Depression Visibility Wind Speed Wind Dir Waves Ship Positions

Tropic Express

Last reported at 2018-Feb-15 01:29 UTC. Time now 2018-Feb-17 20:18 UTC.
Position N 17°50' W 063°24'.

Length 107 m; draft 3.5 m.

Type: Ship. MMSI: 377901024.

Date/timePositionNaut miles runAvg speedWind from/ knotsBaromVisibWave heightAir tempDewpointWater temp
2018-Feb-15 01:29N 17°50' W 063°24'5 9.1
2018-Feb-15 00:59N 17°51' W 063°19'5 8.7
2018-Feb-15 00:23N 17°52' W 063°13'4 8.4
2018-Feb-14 23:53N 17°52' W 063°09'3 8.7
2018-Feb-14 23:30N 17°53' W 063°06'5 8.5
2018-Feb-14 22:54N 17°54' W 063°00'7 0.5
2018-Feb-14 08:34N 17°55' W 062°53'0 0.0
2018-Feb-14 06:22N 17°55' W 062°53'0 0.0
2018-Feb-14 03:13N 17°55' W 062°53'0 0.0
2018-Feb-14 02:43N 17°55' W 062°53'0 0.0
2018-Feb-14 02:28N 17°55' W 062°53'0 0.0
2018-Feb-14 01:58N 17°55' W 062°53'3 1.5
2018-Feb-13 23:37N 17°55' W 062°56'1 9.6
2018-Feb-13 23:30N 17°55' W 062°57'5 9.9
2018-Feb-13 22:59N 17°57' W 063°03'510.5
2018-Feb-13 22:30N 18°00' W 063°07'611.3
2018-Feb-13 22:00N 18°04' W 063°11'611.4
2018-Feb-13 21:27N 18°10' W 063°12'5 0.3
2018-Feb-13 00:27N 18°12' W 063°07'510.4
2018-Feb-12 23:58N 18°11' W 063°12'511.2
2018-Feb-12 23:29N 18°09' W 063°17'5 9.2
2018-Feb-12 22:59N 18°07' W 063°21'4 8.9
2018-Feb-12 22:30N 18°06' W 063°26'5 8.7
2018-Feb-12 21:57N 18°04' W 063°30'4 8.4
2018-Feb-12 21:28N 18°03' W 063°34'46 7.2
2018-Feb-12 15:00N 17°42' W 064°18'   070 / 251012.510.8 26.023.133.0
2018-Feb-08 03:00N 17°42' W 064°06'75 3.8 070 / 181019.510.8 25.023.533.0
2018-Feb-07 07:00N 17°54' W 062°48'5 0.4 080 / 151019.8 25.022.028.0
2018-Feb-06 20:22N 17°55' W 062°53'4 9.6
2018-Feb-06 19:57N 17°55' W 062°57'510.6
2018-Feb-06 19:28N 17°57' W 063°02'710.6
2018-Feb-06 18:49N 18°01' W 063°08'411.3
2018-Feb-06 18:28N 18°04' W 063°11'611.8
2018-Feb-06 17:59N 18°09' W 063°12'5 0.2
2018-Feb-05 19:32N 18°12' W 063°07'1 7.9
2018-Feb-05 19:26N 18°12' W 063°08'510.8
2018-Feb-05 18:58N 18°11' W 063°13'611.6
2018-Feb-05 18:28N 18°08' W 063°19'611.6
2018-Feb-05 17:58N 18°06' W 063°24'  
Track history (hours):
 
Tides and Currents Weather Stations Pressure Air Temp Water Temp Dewpoint Dewpoint Depression Visibility Wind Speed Wind Dir Waves Ship Positions

Tropic Express

Last reported at 2018-Feb-15 01:29 UTC. Time now 2018-Feb-17 20:18 UTC.
Position N 17°50' W 063°24'.

Length 107 m; draft 3.5 m.

Type: Ship. MMSI: 377901024.

Date/timePositionNaut miles runAvg speedWind from/ knotsBaromVisibWave heightAir tempDewpointWater temp
2018-Feb-15 01:29N 17°50' W 063°24'5 9.1
2018-Feb-15 00:59N 17°51' W 063°19'5 8.7
2018-Feb-15 00:23N 17°52' W 063°13'4 8.4
2018-Feb-14 23:53N 17°52' W 063°09'3 8.7
2018-Feb-14 23:30N 17°53' W 063°06'5 8.5
2018-Feb-14 22:54N 17°54' W 063°00'7 0.5
2018-Feb-14 08:34N 17°55' W 062°53'0 0.0
2018-Feb-14 06:22N 17°55' W 062°53'0 0.0
2018-Feb-14 03:13N 17°55' W 062°53'0 0.0
2018-Feb-14 02:43N 17°55' W 062°53'0 0.0
2018-Feb-14 02:28N 17°55' W 062°53'0 0.0
2018-Feb-14 01:58N 17°55' W 062°53'3 1.5
2018-Feb-13 23:37N 17°55' W 062°56'1 9.6
2018-Feb-13 23:30N 17°55' W 062°57'5 9.9
2018-Feb-13 22:59N 17°57' W 063°03'510.5
2018-Feb-13 22:30N 18°00' W 063°07'611.3
2018-Feb-13 22:00N 18°04' W 063°11'611.4
2018-Feb-13 21:27N 18°10' W 063°12'5 0.3
2018-Feb-13 00:27N 18°12' W 063°07'510.4
2018-Feb-12 23:58N 18°11' W 063°12'511.2
2018-Feb-12 23:29N 18°09' W 063°17'5 9.2
2018-Feb-12 22:59N 18°07' W 063°21'4 8.9
2018-Feb-12 22:30N 18°06' W 063°26'5 8.7
2018-Feb-12 21:57N 18°04' W 063°30'4 8.4
2018-Feb-12 21:28N 18°03' W 063°34'46 7.2
2018-Feb-12 15:00N 17°42' W 064°18'   070 / 251012.510.8 26.023.133.0
2018-Feb-08 03:00N 17°42' W 064°06'75 3.8 070 / 181019.510.8 25.023.533.0
2018-Feb-07 07:00N 17°54' W 062°48'5 0.4 080 / 151019.8 25.022.028.0
2018-Feb-06 20:22N 17°55' W 062°53'4 9.6
2018-Feb-06 19:57N 17°55' W 062°57'510.6
2018-Feb-06 19:28N 17°57' W 063°02'710.6
2018-Feb-06 18:49N 18°01' W 063°08'411.3
2018-Feb-06 18:28N 18°04' W 063°11'611.8
2018-Feb-06 17:59N 18°09' W 063°12'5 0.2
2018-Feb-05 19:32N 18°12' W 063°07'1 7.9
2018-Feb-05 19:26N 18°12' W 063°08'510.8
2018-Feb-05 18:58N 18°11' W 063°13'611.6
2018-Feb-05 18:28N 18°08' W 063°19'611.6
2018-Feb-05 17:58N 18°06' W 063°24'  

Dump ship's entire track history